Caney Valley, Arkansas
Current Conditions -  °F | °C
As of 3:56 AM on Friday 19 Dec 2014 (Local Time) from KADF Reporting Station
Haze Haze  
Wind Chill: 38°   Ceiling: 400
Heat Index: 42°   Visibility: 4mi
Dew Point: 42°   Wind: 6mph
Humidity: 100%   Direction: 30°NNE
Pressure: 30.21"   Gusts: NA
Location:  34.2417°N, 93.3579°W
Report Text: KADF 190956Z AUTO 03005KT 4SM BR OVC004 06/06 A3021 RMK AO2 T00550055 SLP245
Loading
Personal Weather Stations






























Interactive Weather Map New forecast layout! Learn more

10-Day Weather Forecast

Advertisements
Track Severe Weather on mobile